Time;durP1;ratioP1;P1;durP2;ratioP2;P2;SDS_P1;SDS_P2;PMS_P1;PMS_P2;Temp;Humidity;BMP_temperature;BMP_pressure;BME280_temperature;BME280_humidity;BME280_pressure;Samples;Min_cycle;Max_cycle;Signal;HPM_P1;HPM_P2
2024/02/23 00:00:05;;;;;;;0.57;0.57;;;7.10;99.90;;;;;;5069673;28;20232;-92
2024/02/23 00:02:31;;;;;;;9.73;1.30;;;7.00;99.90;;;;;;5090594;28;20249;-93
2024/02/23 00:04:57;;;;;;;0.30;0.30;;;6.90;99.90;;;;;;5089122;28;20209;-91
2024/02/23 00:07:23;;;;;;;0.23;0.23;;;7.00;99.90;;;;;;5089089;28;20247;-91
2024/02/23 00:09:51;;;;;;;1.17;0.80;;;7.00;99.90;;;;;;5087964;28;20264;-93
2024/02/23 00:12:17;;;;;;;0.10;0.10;;;7.10;99.90;;;;;;5088410;28;20290;-91
2024/02/23 00:14:43;;;;;;;1.23;1.23;;;7.00;99.90;;;;;;5046394;28;20696;-92
2024/02/23 00:17:09;;;;;;;0.70;0.40;;;7.00;99.90;;;;;;5077855;28;20212;-89
2024/02/23 00:19:35;;;;;;;0.67;0.40;;;7.00;99.90;;;;;;5108744;28;20223;-84
2024/02/23 00:22:00;;;;;;;0.43;0.40;;;6.90;99.90;;;;;;5089954;28;20629;-90
2024/02/23 00:24:26;;;;;;;0.30;0.30;;;6.90;99.90;;;;;;5090718;28;20663;-90
2024/02/23 00:26:52;;;;;;;0.30;0.30;;;6.90;99.90;;;;;;5090922;28;20725;-89
2024/02/23 00:29:18;;;;;;;0.20;0.20;;;6.80;99.90;;;;;;5097329;28;20311;-89
2024/02/23 00:31:45;;;;;;;0.20;0.20;;;6.80;99.90;;;;;;5059600;28;20192;-90
2024/02/23 00:34:13;;;;;;;0.20;0.20;;;6.70;99.90;;;;;;5087238;28;20298;-91
2024/02/23 00:36:40;;;;;;;0.30;0.30;;;6.80;99.90;;;;;;5064895;28;20240;-94
2024/02/23 00:39:09;;;;;;;0.10;0.10;;;6.80;99.90;;;;;;5081825;28;20240;-94
2024/02/23 00:41:35;;;;;;;0.30;0.30;;;7.00;99.90;;;;;;5098590;28;20329;-90
2024/02/23 00:44:02;;;;;;;8.03;1.97;;;7.10;99.90;;;;;;5082215;28;20237;-90
2024/02/23 00:46:28;;;;;;;0.37;0.37;;;7.20;99.90;;;;;;5093118;28;20280;-87
2024/02/23 00:48:54;;;;;;;0.57;0.57;;;7.30;99.90;;;;;;5071388;28;20232;-88
2024/02/23 00:51:20;;;;;;;0.40;0.40;;;7.30;99.90;;;;;;5087655;28;20221;-88
2024/02/23 00:53:45;;;;;;;2.90;0.97;;;7.30;99.90;;;;;;5069989;28;20792;-91
2024/02/23 00:56:12;;;;;;;8.57;1.17;;;7.30;99.90;;;;;;5069128;28;20278;-89
2024/02/23 00:58:38;;;;;;;0.20;0.20;;;7.40;99.90;;;;;;5069614;28;20209;-94
2024/02/23 01:01:05;;;;;;;0.10;0.10;;;7.40;99.90;;;;;;5068358;28;20229;-92
2024/02/23 01:03:33;;;;;;;0.67;0.67;;;7.50;99.90;;;;;;5068229;28;20225;-93
2024/02/23 01:06:01;;;;;;;0.90;0.90;;;7.60;99.90;;;;;;5067009;28;20589;-90
2024/02/23 01:08:27;;;;;;;9.73;0.57;;;7.60;99.90;;;;;;5050634;28;20243;-92
2024/02/23 01:10:56;;;;;;;2.87;0.90;;;7.50;99.90;;;;;;5067448;28;20227;-91
2024/02/23 01:13:21;;;;;;;1.93;0.97;;;7.50;99.90;;;;;;5084000;28;20328;-91
2024/02/23 01:15:47;;;;;;;4.93;0.93;;;7.50;99.90;;;;;;5067672;28;20320;-91
2024/02/23 01:18:14;;;;;;;0.30;0.30;;;7.50;99.90;;;;;;5083747;28;20250;-90
2024/02/23 01:20:40;;;;;;;1.07;0.43;;;7.30;99.90;;;;;;5082995;28;20263;-90
2024/02/23 01:23:06;;;;;;;1.50;1.47;;;7.40;99.90;;;;;;5065275;28;20213;-93
2024/02/23 01:25:31;;;;;;;1.23;0.97;;;7.40;99.90;;;;;;5066775;28;20209;-92
2024/02/23 01:27:57;;;;;;;0.47;0.47;;;7.40;99.90;;;;;;5049257;28;20233;-92
2024/02/23 01:30:23;;;;;;;0.77;0.77;;;7.40;99.90;;;;;;5061994;28;20709;-93
2024/02/23 01:32:50;;;;;;;0.40;0.40;;;7.50;99.90;;;;;;5078361;28;20229;-92
2024/02/23 01:35:16;;;;;;;0.33;0.33;;;7.40;99.90;;;;;;5046078;28;20366;-91
2024/02/23 01:37:42;;;;;;;0.50;0.50;;;7.50;99.90;;;;;;5064013;28;20280;-91
2024/02/23 01:40:08;;;;;;;0.40;0.40;;;7.50;99.90;;;;;;5047993;28;20225;-91
2024/02/23 01:42:34;;;;;;;4.80;0.33;;;7.40;99.90;;;;;;5083481;28;20232;-91
2024/02/23 01:45:01;;;;;;;0.40;0.40;;;7.50;99.90;;;;;;5052528;28;20228;-92
2024/02/23 01:47:29;;;;;;;24.87;1.80;;;7.50;99.90;;;;;;5069084;28;20315;-91
2024/02/23 01:49:56;;;;;;;0.50;0.50;;;7.50;99.90;;;;;;5086260;28;20216;-91
2024/02/23 01:52:22;;;;;;;0.20;0.20;;;7.50;99.90;;;;;;5067915;28;20663;-91
2024/02/23 01:54:47;;;;;;;0.80;0.80;;;7.50;99.90;;;;;;5068221;28;20232;-91
2024/02/23 01:57:14;;;;;;;0.10;0.10;;;7.40;99.90;;;;;;5068385;28;20665;-90
2024/02/23 01:59:40;;;;;;;0.30;0.30;;;7.10;99.90;;;;;;5085394;28;20834;-92
2024/02/23 02:02:06;;;;;;;1.07;0.40;;;6.90;99.90;;;;;;5052277;28;20303;-92
2024/02/23 02:04:32;;;;;;;2.40;0.57;;;6.90;99.90;;;;;;5062082;28;20314;-91
2024/02/23 02:06:59;;;;;;;1.07;0.50;;;6.90;99.90;;;;;;5047167;28;20560;-89
2024/02/23 02:09:25;;;;;;;0.50;0.50;;;7.00;99.90;;;;;;5048640;28;20273;-91
2024/02/23 02:11:51;;;;;;;0.20;0.20;;;7.00;99.90;;;;;;5050539;28;20220;-91
2024/02/23 02:14:18;;;;;;;5.70;1.17;;;7.10;99.90;;;;;;5051330;28;20398;-91
2024/02/23 02:16:44;;;;;;;0.20;0.20;;;7.10;99.90;;;;;;5086922;28;20220;-92
2024/02/23 02:19:11;;;;;;;0.10;0.10;;;7.10;99.90;;;;;;5059444;28;20220;-91
2024/02/23 02:21:37;;;;;;;2.67;0.63;;;7.10;99.90;;;;;;5068624;28;20224;-91
2024/02/23 02:24:03;;;;;;;3.80;0.40;;;7.00;99.90;;;;;;5052227;28;20220;-93
2024/02/23 02:26:33;;;;;;;0.93;0.80;;;7.10;99.90;;;;;;5083666;28;20244;-91
2024/02/23 02:28:59;;;;;;;0.83;0.83;;;7.00;99.90;;;;;;5066833;28;20212;-91
2024/02/23 02:31:25;;;;;;;0.30;0.30;;;7.00;99.90;;;;;;5086223;28;20205;-90
2024/02/23 02:33:50;;;;;;;0.43;0.43;;;7.00;99.90;;;;;;5050718;28;20235;-92
2024/02/23 02:36:16;;;;;;;0.60;0.60;;;6.90;99.90;;;;;;5067923;28;20236;-90
2024/02/23 02:38:42;;;;;;;0.30;0.30;;;7.00;99.90;;;;;;5054222;28;20302;-91
2024/02/23 02:41:08;;;;;;;1.63;1.53;;;7.00;99.90;;;;;;5057465;28;20204;-91
2024/02/23 02:43:34;;;;;;;0.20;0.20;;;7.00;99.90;;;;;;5067920;28;20247;-90
2024/02/23 02:46:00;;;;;;;0.30;0.30;;;7.00;99.90;;;;;;5051060;28;20232;-91
2024/02/23 02:48:26;;;;;;;0.60;0.60;;;7.00;99.90;;;;;;5067763;28;20282;-91
2024/02/23 02:50:52;;;;;;;0.30;0.30;;;7.00;99.90;;;;;;5067919;28;20315;-90
2024/02/23 02:53:18;;;;;;;0.40;0.40;;;7.00;99.90;;;;;;5085516;28;20231;-94
2024/02/23 02:55:45;;;;;;;2.87;0.80;;;7.00;99.90;;;;;;5085210;28;20228;-91
2024/02/23 02:58:12;;;;;;;0.20;0.20;;;7.00;99.90;;;;;;5085593;28;20389;-93
2024/02/23 03:00:38;;;;;;;0.20;0.20;;;6.90;99.90;;;;;;5084635;28;20317;-92
2024/02/23 03:03:04;;;;;;;0.27;0.27;;;6.80;99.90;;;;;;5085192;28;20797;-92
2024/02/23 03:05:30;;;;;;;0.73;0.73;;;6.80;99.90;;;;;;5067747;28;20236;-92
2024/02/23 03:07:56;;;;;;;0.20;0.20;;;6.90;99.90;;;;;;5067589;28;20204;-92
2024/02/23 03:10:22;;;;;;;0.13;0.13;;;6.90;99.90;;;;;;5085173;28;20228;-92
2024/02/23 03:12:48;;;;;;;0.40;0.40;;;6.90;99.90;;;;;;5067608;28;20781;-90
2024/02/23 03:15:13;;;;;;;1.50;1.40;;;6.90;99.90;;;;;;5066812;28;20216;-91
2024/02/23 03:17:39;;;;;;;0.20;0.20;;;6.90;99.90;;;;;;5085182;28;20731;-92
2024/02/23 03:20:08;;;;;;;0.20;0.20;;;6.90;99.90;;;;;;5048009;28;20254;-93
2024/02/23 03:22:37;;;;;;;3.20;0.73;;;7.00;99.90;;;;;;5051474;28;20209;-92
2024/02/23 03:25:08;;;;;;;0.27;0.27;;;7.00;99.90;;;;;;5059385;28;20228;-91
2024/02/23 03:27:40;;;;;;;1.03;0.50;;;7.10;99.90;;;;;;5067270;28;20236;-94
2024/02/23 03:30:09;;;;;;;5.70;0.60;;;7.00;99.90;;;;;;5068941;28;20238;-93
2024/02/23 03:32:38;;;;;;;0.43;0.43;;;6.90;99.90;;;;;;5088939;28;20601;-93
2024/02/23 03:35:08;;;;;;;1.47;0.67;;;6.80;99.90;;;;;;5087519;28;20278;-92
2024/02/23 03:37:34;;;;;;;0.20;0.20;;;6.90;99.90;;;;;;5071162;28;20296;-92
2024/02/23 03:40:00;;;;;;;0.47;0.30;;;7.00;99.90;;;;;;5087998;28;21091;-91
2024/02/23 03:42:27;;;;;;;0.30;0.30;;;7.00;99.90;;;;;;5087083;28;20305;-90
2024/02/23 03:44:53;;;;;;;4.23;2.20;;;7.00;99.90;;;;;;5066297;28;20719;-89
2024/02/23 03:47:19;;;;;;;0.57;0.57;;;7.00;99.90;;;;;;5049407;28;20236;-88
2024/02/23 03:49:44;;;;;;;0.50;0.50;;;7.00;99.90;;;;;;5066495;28;20209;-93
2024/02/23 03:52:10;;;;;;;0.20;0.20;;;7.00;99.90;;;;;;5066311;28;20243;-92
2024/02/23 03:54:36;;;;;;;6.47;0.47;;;6.90;99.90;;;;;;5066363;28;20228;-91
2024/02/23 03:57:03;;;;;;;6.53;3.43;;;6.90;99.90;;;;;;5066465;28;20742;-89
2024/02/23 03:59:29;;;;;;;0.30;0.30;;;6.80;99.90;;;;;;5066565;28;20247;-90
2024/02/23 04:01:55;;;;;;;8.60;0.53;;;6.80;99.90;;;;;;5084281;28;20935;-91
2024/02/23 04:04:21;;;;;;;0.40;0.40;;;6.80;99.90;;;;;;5083604;28;20269;-90
2024/02/23 04:06:50;;;;;;;0.37;0.37;;;6.80;99.90;;;;;;5083412;28;20236;-90
2024/02/23 04:09:15;;;;;;;0.93;0.67;;;6.80;99.90;;;;;;5065842;28;20934;-92
2024/02/23 04:11:41;;;;;;;0.30;0.30;;;6.80;99.90;;;;;;5065912;28;20224;-89
2024/02/23 04:14:10;;;;;;;0.30;0.30;;;6.80;99.90;;;;;;5067808;28;20227;-89
2024/02/23 04:16:36;;;;;;;0.57;0.57;;;6.80;99.90;;;;;;5069982;28;20232;-94
2024/02/23 04:19:01;;;;;;;0.83;0.53;;;6.80;99.90;;;;;;5069268;28;20782;-92
2024/02/23 04:21:27;;;;;;;2.30;0.73;;;6.80;99.90;;;;;;5069954;28;20779;-90
2024/02/23 04:23:53;;;;;;;0.43;0.43;;;6.80;99.90;;;;;;5053742;28;20256;-91
2024/02/23 04:26:20;;;;;;;0.30;0.30;;;6.90;99.90;;;;;;5069479;28;20319;-92
2024/02/23 04:28:47;;;;;;;15.00;1.43;;;6.90;99.90;;;;;;5070702;28;20200;-90
2024/02/23 04:31:13;;;;;;;0.47;0.47;;;6.90;99.90;;;;;;5070038;28;20224;-90
2024/02/23 04:33:39;;;;;;;1.47;1.37;;;6.90;99.90;;;;;;5069666;28;20723;-91
2024/02/23 04:36:06;;;;;;;0.60;0.60;;;6.90;99.90;;;;;;5053601;28;20240;-93
2024/02/23 04:38:34;;;;;;;1.10;0.73;;;6.90;99.90;;;;;;5070730;28;20258;-93
2024/02/23 04:41:04;;;;;;;0.20;0.20;;;6.90;99.90;;;;;;5070563;28;20235;-92
2024/02/23 04:43:30;;;;;;;0.40;0.40;;;6.90;99.90;;;;;;5078254;28;20241;-92
2024/02/23 04:45:55;;;;;;;0.37;0.37;;;6.90;99.90;;;;;;5068016;28;20572;-90
2024/02/23 04:48:21;;;;;;;6.43;0.83;;;6.80;99.90;;;;;;5062083;28;20724;-91
2024/02/23 04:50:47;;;;;;;0.40;0.40;;;6.80;99.90;;;;;;5042220;28;20233;-93
2024/02/23 04:53:13;;;;;;;0.27;0.27;;;6.80;99.90;;;;;;5066282;28;20217;-90
2024/02/23 04:55:39;;;;;;;1.03;1.03;;;6.90;99.90;;;;;;5064060;28;20715;-90
2024/02/23 04:58:05;;;;;;;2.00;0.47;;;6.80;99.90;;;;;;5064147;28;20229;-90
2024/02/23 05:00:34;;;;;;;0.87;0.87;;;6.90;99.90;;;;;;5071936;28;20343;-89
2024/02/23 05:03:03;;;;;;;1.87;0.77;;;6.80;99.90;;;;;;5063574;28;20561;-90
2024/02/23 05:05:32;;;;;;;1.00;1.00;;;6.80;99.90;;;;;;5074829;28;20231;-88
2024/02/23 05:07:59;;;;;;;0.50;0.50;;;6.80;99.90;;;;;;5083599;28;20212;-87
2024/02/23 05:10:25;;;;;;;0.83;0.50;;;6.70;99.90;;;;;;5072514;28;20201;-87
2024/02/23 05:12:51;;;;;;;0.20;0.20;;;6.70;99.90;;;;;;5063386;28;20233;-85
2024/02/23 05:15:16;;;;;;;0.87;0.77;;;6.70;99.90;;;;;;5085968;28;20231;-87
2024/02/23 05:17:42;;;;;;;12.00;0.93;;;6.70;99.90;;;;;;5049380;28;20232;-88
2024/02/23 05:20:10;;;;;;;0.40;0.40;;;6.70;99.90;;;;;;5066132;28;20679;-91
2024/02/23 05:22:39;;;;;;;1.23;1.13;;;6.60;99.90;;;;;;5068238;28;20225;-91
2024/02/23 05:25:05;;;;;;;0.10;0.10;;;6.60;99.90;;;;;;5072791;28;20221;-88
2024/02/23 05:27:31;;;;;;;3.30;0.73;;;6.60;99.90;;;;;;5075744;28;20304;-88
2024/02/23 05:29:57;;;;;;;0.10;0.10;;;6.60;99.90;;;;;;5076925;28;20232;-91
2024/02/23 05:32:23;;;;;;;0.30;0.30;;;6.50;99.90;;;;;;5094530;28;20324;-88
2024/02/23 05:34:51;;;;;;;0.20;0.20;;;6.50;99.90;;;;;;5083889;28;20786;-88
2024/02/23 05:37:17;;;;;;;0.60;0.60;;;6.50;99.90;;;;;;5080424;28;20237;-89
2024/02/23 05:39:44;;;;;;;0.30;0.30;;;6.50;99.90;;;;;;5064056;28;20999;-92
2024/02/23 05:42:10;;;;;;;2.57;0.83;;;6.40;99.90;;;;;;5089946;28;20283;-88
2024/02/23 05:44:36;;;;;;;0.53;0.53;;;6.40;99.90;;;;;;5066078;28;20268;-89
2024/02/23 05:47:02;;;;;;;1.83;1.70;;;6.40;99.90;;;;;;5070036;28;20724;-91
2024/02/23 05:49:28;;;;;;;2.50;0.63;;;6.30;99.90;;;;;;5068458;28;20209;-92
2024/02/23 05:51:55;;;;;;;3.20;0.33;;;6.30;99.90;;;;;;5088702;28;20221;-88
2024/02/23 05:54:20;;;;;;;0.30;0.30;;;6.20;99.90;;;;;;5033917;28;20240;-88
2024/02/23 05:56:46;;;;;;;0.10;0.10;;;6.20;99.90;;;;;;5071140;28;20303;-87
2024/02/23 05:59:12;;;;;;;0.77;0.77;;;6.20;99.90;;;;;;5071233;28;20218;-89
2024/02/23 06:01:40;;;;;;;1.00;0.90;;;6.20;99.90;;;;;;5055722;28;20216;-90
2024/02/23 06:04:06;;;;;;;12.73;1.13;;;6.10;99.90;;;;;;5068023;28;20978;-90
2024/02/23 06:06:32;;;;;;;0.50;0.50;;;6.00;99.90;;;;;;5069691;28;20283;-89
2024/02/23 06:08:58;;;;;;;0.33;0.33;;;6.00;99.90;;;;;;5052459;28;20233;-86
2024/02/23 06:11:24;;;;;;;0.20;0.20;;;6.00;99.90;;;;;;5071859;28;20244;-89
2024/02/23 06:13:49;;;;;;;0.40;0.40;;;5.90;99.90;;;;;;5072441;28;20213;-89
2024/02/23 06:16:15;;;;;;;0.30;0.30;;;5.90;99.90;;;;;;5070860;28;20248;-87
2024/02/23 06:18:41;;;;;;;0.40;0.40;;;5.90;99.90;;;;;;5071127;28;20308;-88
2024/02/23 06:21:14;;;;;;;16.33;0.60;;;5.90;99.90;;;;;;5060789;28;20237;-90
2024/02/23 06:23:41;;;;;;;0.40;0.40;;;5.90;99.90;;;;;;5076674;28;20226;-89
2024/02/23 06:26:07;;;;;;;0.60;0.60;;;5.90;99.90;;;;;;5059942;28;20302;-88
2024/02/23 06:28:33;;;;;;;0.20;0.20;;;5.90;99.90;;;;;;5067755;28;20212;-92
2024/02/23 06:30:59;;;;;;;0.20;0.20;;;6.00;99.90;;;;;;5065047;28;20229;-90
2024/02/23 06:33:25;;;;;;;0.27;0.27;;;6.00;99.90;;;;;;5049313;28;20240;-88
2024/02/23 06:35:52;;;;;;;0.30;0.30;;;6.00;99.90;;;;;;5067522;28;20260;-89
2024/02/23 06:38:18;;;;;;;0.20;0.20;;;6.00;99.90;;;;;;5066724;28;20278;-89
2024/02/23 06:40:44;;;;;;;0.20;0.20;;;6.00;99.90;;;;;;5060449;28;20201;-89
2024/02/23 06:43:09;;;;;;;0.97;0.97;;;6.00;99.90;;;;;;5045777;28;20311;-89
2024/02/23 06:45:36;;;;;;;0.20;0.20;;;6.00;99.90;;;;;;5067137;28;20232;-89
2024/02/23 06:48:01;;;;;;;0.30;0.30;;;6.00;99.90;;;;;;5049723;28;20580;-85
2024/02/23 06:50:27;;;;;;;0.40;0.40;;;6.00;99.90;;;;;;5065672;28;20232;-86
2024/02/23 06:52:54;;;;;;;7.53;0.87;;;6.10;99.90;;;;;;5065508;28;21009;-88
2024/02/23 06:55:20;;;;;;;0.20;0.20;;;6.20;99.90;;;;;;5054030;28;20232;-87
2024/02/23 06:57:47;;;;;;;0.40;0.40;;;6.30;99.90;;;;;;5085933;28;20239;-89
2024/02/23 07:00:15;;;;;;;0.40;0.40;;;6.40;99.90;;;;;;5060926;28;20228;-86
2024/02/23 07:02:41;;;;;;;0.70;0.70;;;6.40;99.90;;;;;;5057157;28;21111;-87
2024/02/23 07:05:08;;;;;;;0.23;0.23;;;6.50;99.90;;;;;;5066437;28;20201;-90
2024/02/23 07:07:36;;;;;;;0.30;0.30;;;6.70;99.90;;;;;;5080565;28;20216;-90
2024/02/23 07:10:04;;;;;;;13.83;0.80;;;6.80;99.90;;;;;;5079643;28;20236;-89
2024/02/23 07:12:30;;;;;;;3.50;1.17;;;7.20;99.90;;;;;;5079709;28;20311;-89
2024/02/23 07:14:56;;;;;;;0.70;0.70;;;7.50;99.90;;;;;;5096395;28;20270;-89
2024/02/23 07:17:22;;;;;;;1.40;1.37;;;7.70;99.90;;;;;;5096373;28;20634;-88
2024/02/23 07:19:50;;;;;;;0.70;0.70;;;8.00;99.90;;;;;;5079313;28;20265;-90
2024/02/23 07:22:17;;;;;;;0.33;0.33;;;8.10;99.90;;;;;;5095108;28;20701;-86
2024/02/23 07:24:43;;;;;;;3.47;0.97;;;8.00;99.90;;;;;;5078164;28;20228;-87
2024/02/23 07:27:09;;;;;;;0.57;0.37;;;7.60;99.90;;;;;;5077605;28;20228;-87
2024/02/23 07:29:35;;;;;;;1.50;1.40;;;7.50;99.90;;;;;;5077968;28;20305;-89
2024/02/23 07:32:01;;;;;;;3.27;1.20;;;7.20;99.90;;;;;;5077778;28;20196;-87
2024/02/23 07:34:27;;;;;;;1.53;1.43;;;7.30;99.90;;;;;;5078449;28;20204;-86
2024/02/23 07:36:54;;;;;;;0.60;0.60;;;7.40;99.90;;;;;;5060973;28;20313;-85
2024/02/23 07:39:21;;;;;;;0.97;0.60;;;7.80;99.90;;;;;;5077511;28;20244;-86
2024/02/23 07:41:47;;;;;;;0.50;0.50;;;7.80;99.90;;;;;;5077889;28;20240;-88
2024/02/23 07:44:13;;;;;;;1.30;1.30;;;8.20;99.90;;;;;;5077029;28;20243;-89
2024/02/23 07:46:39;;;;;;;0.90;0.63;;;8.40;99.90;;;;;;5061516;28;20253;-87
2024/02/23 07:49:08;;;;;;;1.17;1.17;;;9.10;99.90;;;;;;5077175;28;20257;-88
2024/02/23 07:51:33;;;;;;;0.30;0.30;;;9.30;99.90;;;;;;5061431;28;20334;-87
2024/02/23 07:53:59;;;;;;;0.63;0.63;;;9.50;99.90;;;;;;5060566;28;20228;-89
2024/02/23 07:56:31;;;;;;;0.33;0.33;;;8.90;99.90;;;;;;5078110;28;20309;-88
2024/02/23 07:58:57;;;;;;;0.60;0.60;;;8.30;99.90;;;;;;5050911;28;20283;-90
2024/02/23 08:01:23;;;;;;;0.50;0.50;;;7.90;99.90;;;;;;5061840;28;20710;-88
2024/02/23 08:03:49;;;;;;;0.73;0.50;;;7.70;99.90;;;;;;5077586;28;20228;-88
2024/02/23 08:06:14;;;;;;;0.93;0.70;;;7.60;99.90;;;;;;5060877;28;20755;-88
2024/02/23 08:08:40;;;;;;;0.80;0.37;;;7.60;99.90;;;;;;5061036;28;20236;-88
2024/02/23 08:11:06;;;;;;;0.47;0.47;;;7.60;99.90;;;;;;5060459;28;20537;-87
2024/02/23 08:13:32;;;;;;;1.63;1.53;;;7.60;99.90;;;;;;5060835;28;20193;-89
2024/02/23 08:15:58;;;;;;;0.50;0.50;;;7.70;99.90;;;;;;5076510;28;20236;-88
2024/02/23 08:18:24;;;;;;;10.43;1.53;;;7.60;99.90;;;;;;5060394;28;20244;-90
2024/02/23 08:20:49;;;;;;;0.30;0.30;;;7.80;99.90;;;;;;5077044;28;20238;-87
2024/02/23 08:23:15;;;;;;;7.03;1.23;;;8.10;99.90;;;;;;5095089;28;20225;-92
2024/02/23 08:25:41;;;;;;;2.47;0.77;;;8.40;99.90;;;;;;5060615;28;20197;-86
2024/02/23 08:28:07;;;;;;;1.33;1.07;;;8.50;99.90;;;;;;5059896;28;20398;-90
2024/02/23 08:30:33;;;;;;;0.90;0.90;;;8.50;99.90;;;;;;5053891;28;20566;-88
2024/02/23 08:32:59;;;;;;;0.93;0.80;;;8.30;99.90;;;;;;5055060;28;20237;-91
2024/02/23 08:35:25;;;;;;;0.30;0.30;;;8.10;99.90;;;;;;5070764;28;20298;-87
2024/02/23 08:37:51;;;;;;;16.47;1.27;;;8.00;99.90;;;;;;5064996;28;20197;-87
2024/02/23 08:40:17;;;;;;;0.77;0.77;;;7.80;99.90;;;;;;5076265;28;20263;-88
2024/02/23 08:42:43;;;;;;;0.87;0.87;;;7.80;99.90;;;;;;5076002;28;20232;-88
2024/02/23 08:45:13;;;;;;;1.53;1.43;;;7.80;99.90;;;;;;5076510;28;20286;-89
2024/02/23 08:47:41;;;;;;;1.87;1.77;;;7.70;99.90;;;;;;5094408;28;20232;-88
2024/02/23 08:50:07;;;;;;;1.37;1.27;;;7.60;99.90;;;;;;5059896;28;20299;-89
2024/02/23 08:52:33;;;;;;;1.33;1.23;;;7.60;99.90;;;;;;5061092;28;20196;-93
2024/02/23 08:55:00;;;;;;;1.50;1.40;;;7.60;99.90;;;;;;5076143;28;20630;-89
2024/02/23 08:57:27;;;;;;;0.50;0.50;;;7.60;99.90;;;;;;5094132;28;20237;-91
2024/02/23 08:59:53;;;;;;;2.23;1.23;;;7.50;99.90;;;;;;5076353;28;20289;-91
2024/02/23 09:02:19;;;;;;;0.70;0.70;;;7.50;99.90;;;;;;5075475;28;20220;-88
2024/02/23 09:04:47;;;;;;;1.17;1.13;;;7.40;99.90;;;;;;5093963;28;20236;-90
2024/02/23 09:07:16;;;;;;;0.80;0.80;;;7.40;99.90;;;;;;5094430;28;20281;-88
2024/02/23 09:09:43;;;;;;;1.10;0.90;;;7.30;99.90;;;;;;5075900;28;20738;-92
2024/02/23 09:12:14;;;;;;;0.70;0.70;;;7.30;99.90;;;;;;5093982;28;20232;-90
2024/02/23 09:14:41;;;;;;;2.43;0.63;;;7.30;99.90;;;;;;5060004;28;20308;-89
2024/02/23 09:17:08;;;;;;;0.70;0.70;;;7.30;99.90;;;;;;5058946;28;20232;-86
2024/02/23 09:19:34;;;;;;;0.70;0.70;;;7.30;99.90;;;;;;5075884;28;20200;-86
2024/02/23 09:22:01;;;;;;;0.63;0.63;;;7.30;99.90;;;;;;5058825;28;20228;-88
2024/02/23 09:24:27;;;;;;;0.97;0.97;;;7.20;99.90;;;;;;5094194;28;20244;-87
2024/02/23 09:26:55;;;;;;;3.73;0.93;;;7.20;99.90;;;;;;5075002;28;20730;-88
2024/02/23 09:29:23;;;;;;;2.23;0.73;;;7.20;99.90;;;;;;5059208;28;20224;-88
2024/02/23 09:31:49;;;;;;;0.70;0.70;;;7.20;99.90;;;;;;5059808;28;20205;-87
2024/02/23 09:34:15;;;;;;;0.93;0.90;;;7.20;99.90;;;;;;5076052;28;20228;-90
2024/02/23 09:36:41;;;;;;;0.80;0.80;;;7.20;99.90;;;;;;5085038;28;20233;-88
2024/02/23 09:39:07;;;;;;;0.93;0.93;;;7.30;99.90;;;;;;5093723;28;20247;-87
2024/02/23 09:41:34;;;;;;;0.93;0.93;;;7.20;99.90;;;;;;5093806;28;20565;-90
2024/02/23 09:44:02;;;;;;;1.50;1.00;;;7.20;99.90;;;;;;5093863;28;20392;-89
2024/02/23 09:46:29;;;;;;;0.50;0.50;;;7.20;99.90;;;;;;5076482;28;20193;-90
2024/02/23 09:49:03;;;;;;;0.63;0.63;;;7.30;99.90;;;;;;5093972;28;20228;-93
2024/02/23 09:51:31;;;;;;;1.07;1.07;;;7.30;99.90;;;;;;5075981;28;20251;-90
2024/02/23 09:53:57;;;;;;;1.20;1.17;;;7.30;99.90;;;;;;5092281;28;20255;-89
2024/02/23 09:56:27;;;;;;;0.83;0.50;;;7.30;99.90;;;;;;5058693;28;20272;-90
2024/02/23 09:58:55;;;;;;;0.60;0.60;;;7.30;99.90;;;;;;5093022;28;20201;-90
2024/02/23 10:01:30;;;;;;;2.53;0.40;;;7.30;99.90;;;;;;5075481;28;20609;-91
2024/02/23 10:03:57;;;;;;;0.20;0.20;;;6.90;99.90;;;;;;5066128;28;20232;-89
2024/02/23 10:06:24;;;;;;;0.37;0.30;;;6.60;99.90;;;;;;5093232;28;20236;-89
2024/02/23 10:08:50;;;;;;;0.30;0.30;;;6.60;99.90;;;;;;5075084;28;20232;-90
2024/02/23 10:11:24;;;;;;;0.37;0.37;;;6.60;99.90;;;;;;5058364;28;20269;-90
2024/02/23 10:13:51;;;;;;;0.60;0.60;;;6.60;99.90;;;;;;5094168;28;20515;-88
2024/02/23 10:16:20;;;;;;;0.27;0.27;;;6.60;99.90;;;;;;5092581;28;20339;-89
2024/02/23 10:18:48;;;;;;;3.90;0.90;;;6.60;99.90;;;;;;5074592;28;20258;-90
2024/02/23 10:21:19;;;;;;;0.40;0.40;;;6.80;99.90;;;;;;5092105;28;20714;-90
2024/02/23 10:23:46;;;;;;;1.50;0.70;;;6.90;99.90;;;;;;5074626;28;20692;-90
2024/02/23 10:26:12;;;;;;;0.47;0.47;;;7.10;99.90;;;;;;5074280;28;20199;-89
2024/02/23 10:28:38;;;;;;;8.00;0.60;;;7.20;99.90;;;;;;5075606;28;20201;-89
2024/02/23 10:31:08;;;;;;;0.30;0.30;;;7.20;99.90;;;;;;5093184;28;20672;-88
2024/02/23 10:33:35;;;;;;;0.60;0.60;;;7.30;99.90;;;;;;5074947;28;20232;-86
2024/02/23 10:36:03;;;;;;;0.70;0.70;;;7.20;99.90;;;;;;5074174;28;20236;-88
2024/02/23 10:38:32;;;;;;;0.30;0.30;;;7.20;99.90;;;;;;5075341;28;20249;-87
2024/02/23 10:40:58;;;;;;;0.50;0.50;;;7.20;99.90;;;;;;5074591;28;20208;-89
2024/02/23 10:43:37;;;;;;;0.57;0.57;;;7.10;99.90;;;;;;5075498;28;20233;-88
2024/02/23 10:46:07;;;;;;;0.37;0.37;;;7.20;99.90;;;;;;5075283;28;20262;-89
2024/02/23 10:48:36;;;;;;;0.73;0.73;;;7.10;99.90;;;;;;5058994;28;20224;-89
2024/02/23 10:51:07;;;;;;;0.30;0.30;;;7.10;99.90;;;;;;5092660;28;20232;-88
2024/02/23 10:53:37;;;;;;;0.53;0.53;;;7.10;99.90;;;;;;5074575;28;20352;-87
2024/02/23 10:56:05;;;;;;;0.37;0.37;;;7.20;99.90;;;;;;5075416;28;20221;-88
2024/02/23 10:58:30;;;;;;;0.30;0.30;;;7.20;99.90;;;;;;5075377;28;20240;-89
2024/02/23 11:01:02;;;;;;;1.30;1.30;;;7.30;99.90;;;;;;5074107;28;20232;-89
2024/02/23 11:03:32;;;;;;;2.20;0.70;;;7.50;99.90;;;;;;5092598;28;20289;-88
2024/02/23 11:06:02;;;;;;;0.50;0.50;;;7.60;99.90;;;;;;5074829;28;20228;-88
2024/02/23 11:08:29;;;;;;;0.67;0.67;;;8.00;99.90;;;;;;5074698;28;20228;-87
2024/02/23 11:10:55;;;;;;;0.40;0.40;;;8.00;99.90;;;;;;5092555;28;20213;-89
2024/02/23 11:13:55;;;;;;;1.40;0.50;;;8.10;99.90;;;;;;5074971;28;20338;-86
2024/02/23 11:16:25;;;;;;;3.73;1.67;;;8.20;99.90;;;;;;5064292;28;20319;-87
2024/02/23 11:19:05;;;;;;;0.57;0.23;;;8.10;99.90;;;;;;5092112;28;20224;-89
2024/02/23 11:21:38;;;;;;;0.70;0.70;;;8.00;99.90;;;;;;5074156;28;20730;-88
2024/02/23 11:24:04;;;;;;;0.20;0.20;;;8.00;99.90;;;;;;5074819;28;20228;-87
2024/02/23 11:26:31;;;;;;;0.30;0.30;;;7.90;99.90;;;;;;5074449;28;20261;-89
2024/02/23 11:29:10;;;;;;;0.60;0.60;;;7.90;99.90;;;;;;5074691;28;20197;-89
2024/02/23 11:31:36;;;;;;;3.63;1.27;;;7.90;99.90;;;;;;5093090;28;20531;-93
2024/02/23 11:34:08;;;;;;;0.57;0.47;;;7.90;99.90;;;;;;5074815;28;20235;-91
2024/02/23 11:36:42;;;;;;;0.37;0.37;;;7.90;99.90;;;;;;5082999;28;20251;-91
2024/02/23 11:39:12;;;;;;;0.40;0.40;;;7.90;99.90;;;;;;5074204;28;20293;-89
2024/02/23 11:41:42;;;;;;;0.20;0.20;;;7.90;99.90;;;;;;5092560;28;20293;-89
2024/02/23 11:44:09;;;;;;;1.20;0.80;;;7.90;99.90;;;;;;5057890;28;20803;-91
2024/02/23 11:46:35;;;;;;;4.27;0.73;;;7.90;99.90;;;;;;5058458;28;20200;-91
2024/02/23 11:49:01;;;;;;;3.03;1.07;;;7.90;99.90;;;;;;5073799;28;20236;-91
2024/02/23 11:51:29;;;;;;;0.10;0.10;;;8.00;99.90;;;;;;5059673;28;20766;-90
2024/02/23 11:54:00;;;;;;;1.90;1.80;;;8.00;99.90;;;;;;5060863;28;20692;-89
2024/02/23 11:56:26;;;;;;;0.70;0.70;;;8.00;99.90;;;;;;5077016;28;20315;-90
2024/02/23 11:58:53;;;;;;;1.33;1.03;;;8.10;99.90;;;;;;5096064;28;20648;-85
2024/02/23 12:01:19;;;;;;;0.50;0.50;;;8.00;99.90;;;;;;5086034;28;20280;-86
2024/02/23 12:03:45;;;;;;;0.70;0.70;;;8.10;99.90;;;;;;5077629;28;20228;-87
2024/02/23 12:06:15;;;;;;;4.83;4.53;;;8.10;99.90;;;;;;5060280;28;20220;-85
2024/02/23 12:08:41;;;;;;;0.50;0.50;;;8.00;99.90;;;;;;5060913;28;20230;-85
2024/02/23 12:11:11;;;;;;;0.60;0.60;;;7.90;99.90;;;;;;5060615;28;20221;-89
2024/02/23 12:13:37;;;;;;;0.80;0.80;;;7.70;99.90;;;;;;5078364;28;20196;-89
2024/02/23 12:16:04;;;;;;;0.23;0.23;;;7.80;99.90;;;;;;5076705;28;20239;-88
2024/02/23 12:18:32;;;;;;;0.50;0.50;;;7.90;99.90;;;;;;5076907;28;20241;-89
2024/02/23 12:21:06;;;;;;;0.43;0.43;;;8.10;99.90;;;;;;5095181;28;20691;-86
2024/02/23 12:23:39;;;;;;;0.30;0.30;;;8.20;99.90;;;;;;5060922;28;20314;-88
2024/02/23 12:26:05;;;;;;;0.40;0.40;;;8.20;99.90;;;;;;5094785;28;20389;-88
2024/02/23 12:28:31;;;;;;;0.20;0.20;;;8.60;99.90;;;;;;5061066;28;20224;-88
2024/02/23 12:31:07;;;;;;;0.43;0.43;;;9.10;99.90;;;;;;5060611;28;20231;-88
2024/02/23 12:33:34;;;;;;;0.27;0.27;;;9.40;99.90;;;;;;5077142;28;20277;-90
2024/02/23 12:36:01;;;;;;;0.20;0.20;;;9.60;99.90;;;;;;5076803;28;20228;-86
2024/02/23 12:38:27;;;;;;;0.40;0.40;;;9.60;99.90;;;;;;5060522;28;20239;-87
2024/02/23 12:40:53;;;;;;;0.60;0.43;;;9.80;99.90;;;;;;5095298;28;20204;-88
2024/02/23 12:43:24;;;;;;;2.37;0.93;;;10.00;99.90;;;;;;5066171;28;20247;-87
2024/02/23 12:45:53;;;;;;;0.30;0.30;;;10.00;99.90;;;;;;5093338;28;20224;-87
2024/02/23 12:48:20;;;;;;;0.60;0.60;;;9.90;99.90;;;;;;5076850;28;20251;-87
2024/02/23 12:50:49;;;;;;;9.27;0.83;;;9.90;99.90;;;;;;5094544;28;20236;-87
2024/02/23 12:53:37;;;;;;;0.30;0.30;;;9.90;99.90;;;;;;5076275;28;20319;-85
2024/02/23 12:56:15;;;;;;;0.30;0.30;;;9.50;99.90;;;;;;5076719;28;20564;-87